createdAt,value
2019-03-02T00:01:00.401Z,93.68
2019-03-02T00:03:27.892Z,93.66
2019-03-02T00:05:57.104Z,93.64
2019-03-02T00:08:25.217Z,93.52
2019-03-02T00:10:52.945Z,93.37
2019-03-02T00:13:22.036Z,93.42
2019-03-02T00:15:49.605Z,93.47
2019-03-02T00:18:17.046Z,93.34
2019-03-02T00:20:44.525Z,93.39
2019-03-02T00:23:12.025Z,93.36
2019-03-02T00:25:39.466Z,93.21
2019-03-02T00:28:06.885Z,92.98
2019-03-02T00:30:34.353Z,92.73
2019-03-02T00:33:01.818Z,92.58
2019-03-02T00:35:29.306Z,92.83
2019-03-02T00:37:56.985Z,93.20
2019-03-02T00:40:27.133Z,93.19
2019-03-02T00:42:53.826Z,93.25
2019-03-02T00:45:21.305Z,93.48
2019-03-02T00:47:48.764Z,93.49
2019-03-02T00:50:16.210Z,93.42
2019-03-02T00:52:43.725Z,93.79
2019-03-02T00:55:11.304Z,93.60
2019-03-02T00:57:38.811Z,93.38
2019-03-02T01:00:07.357Z,93.56
2019-03-02T01:02:36.802Z,93.52
2019-03-02T01:05:05.013Z,93.28
2019-03-02T01:07:32.485Z,93.40
2019-03-02T01:09:59.971Z,92.94
2019-03-02T01:12:27.471Z,92.65
2019-03-02T01:14:54.905Z,92.43
2019-03-02T01:17:22.526Z,92.62
2019-03-02T01:19:52.579Z,92.70
2019-03-02T01:22:19.305Z,92.90
2019-03-02T01:24:46.788Z,93.16
2019-03-02T01:27:14.289Z,93.43
2019-03-02T01:29:41.825Z,93.62
2019-03-02T01:32:12.661Z,93.60
2019-03-02T01:34:42.330Z,93.49
2019-03-02T01:37:09.671Z,93.22
2019-03-02T01:39:37.205Z,93.27
2019-03-02T01:42:04.643Z,93.29
2019-03-02T01:44:32.125Z,93.63
2019-03-02T01:46:59.645Z,93.62
2019-03-02T01:49:28.365Z,93.62
2019-03-02T01:51:58.179Z,93.38
2019-03-02T01:54:25.167Z,93.23
2019-03-02T01:56:52.745Z,93.44
2019-03-02T01:59:20.225Z,93.52
2019-03-02T02:01:47.705Z,93.42
2019-03-02T02:04:15.135Z,93.51
2019-03-02T02:06:42.951Z,93.41
2019-03-02T02:09:11.175Z,93.39
2019-03-02T02:11:38.685Z,93.52
2019-03-02T02:14:06.081Z,93.37
2019-03-02T02:16:33.547Z,93.35
2019-03-02T02:19:02.441Z,93.44
2019-03-02T02:21:30.390Z,93.93
2019-03-02T02:23:57.865Z,93.64
2019-03-02T02:26:25.345Z,93.48
2019-03-02T02:28:52.765Z,93.38
2019-03-02T02:31:20.218Z,93.64
2019-03-02T02:33:47.663Z,93.55
2019-03-02T02:36:18.769Z,93.48
2019-03-02T02:38:44.445Z,93.52
2019-03-02T02:41:11.964Z,93.55
2019-03-02T02:43:39.405Z,93.70
2019-03-02T02:46:06.831Z,93.70
2019-03-02T02:48:34.326Z,93.54
2019-03-02T02:51:04.362Z,93.35
2019-03-02T02:53:31.123Z,93.62
2019-03-02T02:55:58.573Z,93.41
2019-03-02T02:58:26.067Z,93.26
2019-03-02T03:00:55.200Z,93.50
2019-03-02T03:03:22.900Z,93.68
2019-03-02T03:05:53.957Z,93.66
2019-03-02T03:08:19.681Z,93.94
2019-03-02T03:10:47.146Z,94.04
2019-03-02T03:13:14.595Z,93.75
2019-03-02T03:15:47.247Z,93.96
2019-03-02T03:18:15.240Z,93.84
2019-03-02T03:20:47.954Z,93.92
2019-03-02T03:23:12.269Z,94.06
2019-03-02T03:25:39.725Z,94.18
2019-03-02T03:28:07.330Z,94.32
2019-03-02T03:30:38.350Z,94.07
2019-03-02T03:33:04.161Z,94.19
2019-03-02T03:35:32.551Z,94.17
2019-03-02T03:37:59.998Z,94.15
2019-03-02T03:40:27.493Z,94.08
2019-03-02T03:43:02.240Z,94.00
2019-03-02T03:45:24.346Z,93.70
2019-03-02T03:47:51.842Z,93.47
2019-03-02T03:50:19.306Z,93.53
2019-03-02T03:52:48.957Z,93.24
2019-03-02T03:55:23.710Z,93.32
2019-03-02T03:57:45.650Z,93.37
2019-03-02T04:00:13.988Z,93.49
2019-03-02T04:02:41.795Z,93.43
2019-03-02T04:05:10.396Z,93.15
2019-03-02T04:07:37.867Z,93.10
2019-03-02T04:10:08.026Z,93.31
2019-03-02T04:12:35.465Z,93.06
2019-03-02T04:15:03.276Z,93.04
2019-03-02T04:17:34.223Z,93.08
2019-03-02T04:20:00.459Z,93.38
2019-03-02T04:22:27.924Z,93.82
2019-03-02T04:25:04.565Z,94.04
2019-03-02T04:27:32.005Z,94.10
2019-03-02T04:29:59.445Z,94.29
2019-03-02T04:32:27.841Z,94.47
2019-03-02T04:34:57.703Z,94.58
2019-03-02T04:37:25.425Z,94.67
2019-03-02T04:39:52.846Z,94.49
2019-03-02T04:42:20.345Z,94.34
2019-03-02T04:44:47.845Z,94.15
2019-03-02T04:47:15.305Z,94.28
2019-03-02T04:49:42.765Z,94.35
2019-03-02T04:52:11.504Z,94.27
2019-03-02T04:54:39.306Z,94.38
2019-03-02T04:57:06.765Z,94.58
2019-03-02T04:59:34.235Z,94.59
2019-03-02T05:02:01.705Z,94.31
2019-03-02T05:04:32.245Z,94.19
2019-03-02T05:06:58.564Z,94.04
2019-03-02T05:09:26.009Z,94.13
2019-03-02T05:11:53.485Z,94.16
2019-03-02T05:14:20.975Z,94.02
2019-03-02T05:16:48.466Z,93.77
2019-03-02T05:19:15.924Z,93.62
2019-03-02T05:21:44.326Z,93.66
2019-03-02T05:24:11.845Z,93.55
2019-03-02T05:26:39.345Z,93.37
2019-03-02T05:29:06.805Z,93.08
2019-03-02T05:31:34.245Z,93.21
2019-03-02T05:34:04.577Z,93.75
2019-03-02T05:36:31.074Z,93.94
2019-03-02T05:38:58.560Z,93.88
2019-03-02T05:41:26.005Z,93.73
2019-03-02T05:43:53.465Z,93.56
2019-03-02T05:46:21.915Z,93.68
2019-03-02T05:48:49.497Z,93.79
2019-03-02T05:51:16.945Z,93.72
2019-03-02T05:53:44.425Z,93.52
2019-03-02T05:56:11.886Z,93.47
2019-03-02T05:58:39.405Z,93.68
2019-03-02T06:01:06.825Z,93.78
2019-03-02T06:03:34.326Z,93.70
2019-03-02T06:06:01.825Z,93.52
2019-03-02T06:08:32.190Z,93.70
2019-03-02T06:11:01.956Z,93.78
2019-03-02T06:13:28.271Z,93.95
2019-03-02T06:15:56.309Z,94.02
2019-03-02T06:18:23.785Z,93.81
2019-03-02T06:20:51.584Z,93.62
2019-03-02T06:23:19.069Z,93.84
2019-03-02T06:25:46.545Z,93.77
2019-03-02T06:28:13.945Z,93.72
2019-03-02T06:30:44.099Z,93.92
2019-03-02T06:33:10.775Z,94.05
2019-03-02T06:35:38.212Z,94.18
2019-03-02T06:38:05.685Z,94.29
2019-03-02T06:40:33.127Z,94.28
2019-03-02T06:43:00.586Z,94.16
2019-03-02T06:45:28.085Z,93.97
2019-03-02T06:47:55.537Z,93.74
2019-03-02T06:50:23.089Z,93.89
2019-03-02T06:52:50.567Z,94.16
2019-03-02T06:55:20.922Z,94.30
2019-03-02T06:57:50.172Z,94.44
2019-03-02T07:00:18.169Z,94.45
2019-03-02T07:02:45.733Z,94.48
2019-03-02T07:05:13.426Z,94.29
2019-03-02T07:07:40.909Z,94.30
2019-03-02T07:10:11.020Z,94.34
2019-03-02T07:12:41.845Z,94.10
2019-03-02T07:15:13.277Z,94.17
2019-03-02T07:18:07.840Z,94.39
2019-03-02T07:20:35.987Z,94.04
2019-03-02T07:23:03.606Z,93.76
2019-03-02T07:25:31.397Z,93.81
2019-03-02T07:28:01.855Z,94.27
2019-03-02T07:30:28.507Z,94.07
2019-03-02T07:32:56.298Z,94.03
2019-03-02T07:35:23.765Z,94.01
2019-03-02T07:37:51.182Z,94.14
2019-03-02T07:40:18.670Z,94.21
2019-03-02T07:42:46.111Z,94.33
2019-03-02T07:45:15.009Z,94.21
2019-03-02T07:47:42.475Z,94.07
2019-03-02T07:50:10.276Z,93.98
2019-03-02T07:52:37.723Z,94.17
2019-03-02T07:55:05.449Z,94.12
2019-03-02T07:57:32.902Z,93.63
2019-03-02T08:00:02.117Z,93.47
2019-03-02T08:02:30.727Z,93.19
2019-03-02T08:05:00.036Z,93.10
2019-03-02T08:07:27.645Z,93.33
2019-03-02T08:09:55.089Z,93.25
2019-03-02T08:12:24.879Z,93.06
2019-03-02T08:14:52.003Z,93.20
2019-03-02T08:17:19.444Z,92.92
2019-03-02T08:19:48.546Z,92.62
2019-03-02T08:22:16.267Z,92.57
2019-03-02T08:24:44.683Z,92.73
2019-03-02T08:27:12.182Z,92.91
2019-03-02T08:29:39.649Z,93.08
2019-03-02T08:32:07.083Z,93.10
2019-03-02T08:34:34.538Z,92.92
2019-03-02T08:37:02.009Z,92.98
2019-03-02T08:39:29.561Z,92.84
2019-03-02T08:41:57.105Z,92.84
2019-03-02T08:44:24.746Z,92.78
2019-03-02T08:46:52.258Z,92.11
2019-03-02T08:49:19.990Z,92.12
2019-03-02T08:51:49.870Z,92.43
2019-03-02T08:54:17.917Z,92.00
2019-03-02T08:56:47.741Z,91.92
2019-03-02T08:59:14.907Z,91.90
2019-03-02T09:01:42.466Z,91.75
2019-03-02T09:04:10.168Z,91.65
2019-03-02T09:06:37.833Z,91.32
2019-03-02T09:09:06.749Z,91.66
2019-03-02T09:11:34.182Z,91.74
2019-03-02T09:14:01.640Z,91.04
2019-03-02T09:16:29.502Z,90.06
2019-03-02T09:18:56.959Z,90.43
2019-03-02T09:21:24.487Z,90.74
2019-03-02T09:23:54.378Z,90.78
2019-03-02T09:26:22.015Z,90.34
2019-03-02T09:28:51.951Z,90.50
2019-03-02T09:31:25.906Z,91.34
2019-03-02T09:33:48.319Z,91.34
2019-03-02T09:36:15.819Z,90.66
2019-03-02T09:38:43.328Z,91.11
2019-03-02T09:41:11.670Z,91.66
2019-03-02T09:43:39.335Z,91.05
2019-03-02T09:46:07.549Z,90.98
2019-03-02T09:48:35.926Z,91.38
2019-03-02T09:51:03.964Z,91.26
2019-03-02T09:53:31.836Z,90.79
2019-03-02T09:55:59.823Z,90.94
2019-03-02T09:58:27.332Z,91.31
2019-03-02T10:00:56.808Z,90.57
2019-03-02T10:03:26.707Z,90.17
2019-03-02T10:05:53.788Z,90.68
2019-03-02T10:08:21.469Z,91.13
2019-03-02T10:10:48.943Z,91.32
2019-03-02T10:13:16.400Z,91.58
2019-03-02T10:15:44.041Z,91.67
2019-03-02T10:18:13.887Z,91.43
2019-03-02T10:20:42.619Z,90.96
2019-03-02T10:23:10.336Z,90.90
2019-03-02T10:25:37.813Z,90.81
2019-03-02T10:28:07.373Z,90.97
2019-03-02T10:30:34.954Z,90.96
2019-03-02T10:33:02.388Z,91.08
2019-03-02T10:35:30.526Z,91.50
2019-03-02T10:37:58.105Z,91.41
2019-03-02T10:40:25.603Z,91.22
2019-03-02T10:42:53.276Z,91.22
2019-03-02T10:45:21.652Z,91.52
2019-03-02T10:47:49.247Z,91.10
2019-03-02T10:50:19.651Z,91.00
2019-03-02T10:52:48.947Z,91.22
2019-03-02T10:55:18.107Z,91.27
2019-03-02T10:57:45.788Z,91.51
2019-03-02T11:00:17.872Z,91.37
2019-03-02T11:02:45.494Z,91.39
2019-03-02T11:05:48.559Z,91.99
2019-03-02T11:08:44.612Z,92.17
2019-03-02T11:11:29.782Z,91.78
2019-03-02T11:14:27.781Z,90.97
2019-03-02T11:17:13.580Z,90.16
2019-03-02T11:20:03.706Z,90.06
2019-03-02T11:22:41.754Z,90.15
2019-03-02T11:25:25.650Z,90.14
2019-03-02T11:27:58.881Z,89.63
2019-03-02T11:30:57.829Z,90.12
2019-03-02T11:33:43.729Z,88.91
2019-03-02T11:36:39.667Z,89.39
2019-03-02T11:39:37.939Z,89.57
2019-03-02T11:42:14.064Z,89.80
2019-03-02T11:45:03.969Z,89.91
2019-03-02T11:47:50.949Z,90.52
2019-03-02T11:50:24.238Z,90.45
2019-03-02T11:53:02.999Z,89.98
2019-03-02T11:55:42.279Z,89.19
2019-03-02T11:58:41.316Z,88.10
2019-03-02T12:01:30.044Z,87.29
2019-03-02T12:04:19.546Z,87.54
2019-03-02T12:07:13.251Z,88.88
2019-03-02T12:10:06.435Z,88.91
2019-03-02T12:12:56.719Z,88.61
2019-03-02T12:15:33.970Z,87.26
2019-03-02T12:18:16.426Z,87.83
2019-03-02T12:21:03.184Z,88.21
2019-03-02T12:23:49.251Z,87.93
2019-03-02T12:26:36.184Z,87.89
2019-03-02T12:29:26.687Z,88.28
2019-03-02T12:32:07.576Z,88.15
2019-03-02T12:34:46.911Z,86.98
2019-03-02T12:37:39.638Z,86.21
2019-03-02T12:40:36.316Z,86.41
2019-03-02T12:43:21.837Z,85.89
2019-03-02T12:46:05.498Z,85.57
2019-03-02T12:49:06.957Z,85.42
2019-03-02T12:51:53.007Z,84.59
2019-03-02T12:54:39.280Z,84.67
2019-03-02T12:57:29.446Z,84.75
2019-03-02T13:00:19.487Z,84.78
2019-03-02T13:03:15.508Z,85.27
2019-03-02T13:05:57.479Z,86.40
2019-03-02T13:08:46.792Z,86.88
2019-03-02T13:11:32.754Z,86.53
2019-03-02T13:14:07.602Z,86.17
2019-03-02T13:17:06.825Z,87.65
2019-03-02T13:19:39.651Z,87.51
2019-03-02T13:22:32.819Z,87.54
2019-03-02T13:25:22.499Z,86.67
2019-03-02T13:28:19.796Z,86.68
2019-03-02T13:31:15.714Z,86.53
2019-03-02T13:34:19.974Z,86.25
2019-03-02T13:36:56.424Z,86.04
2019-03-02T13:39:51.221Z,85.20
2019-03-02T13:42:37.955Z,84.76
2019-03-02T13:45:23.115Z,84.85
2019-03-02T13:48:22.233Z,83.80
2019-03-02T13:51:13.967Z,84.80
2019-03-02T13:53:53.602Z,85.55
2019-03-02T13:56:47.174Z,86.17
2019-03-02T13:59:41.285Z,84.45
2019-03-02T14:02:28.535Z,84.33
2019-03-02T14:05:14.476Z,84.97
2019-03-02T14:08:13.805Z,84.30
2019-03-02T14:11:07.315Z,84.43
2019-03-02T14:14:09.438Z,84.90
2019-03-02T14:16:57.517Z,85.24
2019-03-02T14:19:50.507Z,84.85
2019-03-02T14:22:41.150Z,84.28
2019-03-02T14:25:25.932Z,84.37
2019-03-02T14:28:30.702Z,83.88
2019-03-02T14:31:03.590Z,83.81
2019-03-02T14:34:03.007Z,83.95
2019-03-02T14:36:37.811Z,83.43
2019-03-02T14:39:25.530Z,83.42
2019-03-02T14:42:03.983Z,82.09
2019-03-02T14:44:38.810Z,81.48
2019-03-02T14:47:28.825Z,81.71
2019-03-02T14:50:15.969Z,81.51
2019-03-02T14:53:06.189Z,82.95
2019-03-02T14:55:51.070Z,82.74
2019-03-02T14:58:37.716Z,81.25
2019-03-02T15:01:24.287Z,80.66
2019-03-02T15:04:26.885Z,80.40
2019-03-02T15:07:13.286Z,80.77
2019-03-02T15:09:59.384Z,83.24
2019-03-02T15:12:48.472Z,81.41
2019-03-02T15:15:38.991Z,80.31
2019-03-02T15:18:29.056Z,81.94
2019-03-02T15:21:13.540Z,83.50
2019-03-02T15:24:00.986Z,84.03
2019-03-02T15:26:51.239Z,84.38
2019-03-02T15:29:37.378Z,84.94
2019-03-02T15:32:34.394Z,84.20
2019-03-02T15:35:49.630Z,84.40
2019-03-02T15:38:51.918Z,84.43
2019-03-02T15:41:28.186Z,84.82
2019-03-02T15:44:18.589Z,85.96
2019-03-02T15:47:06.167Z,85.15
2019-03-02T15:49:53.124Z,85.32
2019-03-02T15:52:26.666Z,85.74
2019-03-02T15:55:12.938Z,85.56
2019-03-02T15:57:56.019Z,85.59
2019-03-02T16:00:58.364Z,85.96
2019-03-02T16:03:53.250Z,84.02
2019-03-02T16:06:31.216Z,84.25
2019-03-02T16:09:21.208Z,83.62
2019-03-02T16:11:56.350Z,84.53
2019-03-02T16:14:32.730Z,85.07
2019-03-02T16:17:17.587Z,85.25
2019-03-02T16:20:06.464Z,85.64
2019-03-02T16:22:53.989Z,86.27
2019-03-02T16:25:50.061Z,85.89
2019-03-02T16:28:38.923Z,86.41
2019-03-02T16:31:16.979Z,86.35
2019-03-02T16:33:56.590Z,86.00
2019-03-02T16:36:59.111Z,85.41
2019-03-02T16:39:47.079Z,86.03
2019-03-02T16:42:40.362Z,86.64
2019-03-02T16:45:27.027Z,87.15
2019-03-02T16:48:24.958Z,87.29
2019-03-02T16:51:18.492Z,87.83
2019-03-02T16:54:06.223Z,87.66
2019-03-02T16:57:05.559Z,87.95
2019-03-02T16:59:46.047Z,88.31
2019-03-02T17:02:45.837Z,89.19
2019-03-02T17:05:32.701Z,89.28
2019-03-02T17:08:31.214Z,88.99
2019-03-02T17:11:18.591Z,88.63
2019-03-02T17:14:15.258Z,88.62
2019-03-02T17:17:11.924Z,88.38
2019-03-02T17:19:51.445Z,87.82
2019-03-02T17:22:23.637Z,88.42
2019-03-02T17:25:01.321Z,88.52
2019-03-02T17:27:38.515Z,88.53
2019-03-02T17:30:17.801Z,88.62
2019-03-02T17:32:58.384Z,87.75
2019-03-02T17:35:34.219Z,88.31
2019-03-02T17:38:24.278Z,88.45
2019-03-02T17:41:15.004Z,87.90
2019-03-02T17:43:52.767Z,87.79
2019-03-02T17:46:32.076Z,87.81
2019-03-02T17:49:28.799Z,88.21
2019-03-02T17:52:12.913Z,88.64
2019-03-02T17:55:04.470Z,89.96
2019-03-02T17:57:54.422Z,89.94
2019-03-02T18:00:53.194Z,90.35
2019-03-02T18:03:55.966Z,89.38
2019-03-02T18:06:37.359Z,89.20
2019-03-02T18:09:28.864Z,89.88
2019-03-02T18:12:29.080Z,89.13
2019-03-02T18:15:10.794Z,89.33
2019-03-02T18:18:10.766Z,90.01
2019-03-02T18:20:38.751Z,90.05
2019-03-02T18:23:06.883Z,90.59
2019-03-02T18:25:36.092Z,90.64
2019-03-02T18:28:04.671Z,90.75
2019-03-02T18:30:32.864Z,90.51
2019-03-02T18:33:12.650Z,90.26
2019-03-02T18:35:41.914Z,90.58
2019-03-02T18:38:12.637Z,90.41
2019-03-02T18:40:41.645Z,89.76
2019-03-02T18:43:09.780Z,89.66
2019-03-02T18:45:39.613Z,89.57
2019-03-02T18:48:17.608Z,89.25
2019-03-02T18:50:57.620Z,90.04
2019-03-02T18:53:28.895Z,90.16
2019-03-02T18:55:57.913Z,90.57
2019-03-02T18:58:27.547Z,90.41
2019-03-02T19:00:57.681Z,90.42
2019-03-02T19:03:25.984Z,91.00
2019-03-02T19:05:53.920Z,91.18
2019-03-02T19:08:22.030Z,91.21
2019-03-02T19:10:50.505Z,90.80
2019-03-02T19:13:18.789Z,91.03
2019-03-02T19:15:53.515Z,91.68
2019-03-02T19:18:16.935Z,91.20
2019-03-02T19:20:45.925Z,90.34
2019-03-02T19:23:14.187Z,90.14
2019-03-02T19:25:43.474Z,90.74
2019-03-02T19:28:11.561Z,90.78
2019-03-02T19:30:39.766Z,90.82
2019-03-02T19:33:10.197Z,90.49
2019-03-02T19:35:38.286Z,90.35
2019-03-02T19:38:06.395Z,90.32
2019-03-02T19:40:34.521Z,91.01
2019-03-02T19:43:02.974Z,91.26
2019-03-02T19:45:31.755Z,91.26
2019-03-02T19:48:02.165Z,91.05
2019-03-02T19:50:30.489Z,90.73
2019-03-02T19:52:58.640Z,90.89
2019-03-02T19:55:26.693Z,91.17
2019-03-02T19:57:54.801Z,91.23
2019-03-02T20:00:25.413Z,91.26
2019-03-02T20:02:53.456Z,91.04
2019-03-02T20:05:21.515Z,91.07
2019-03-02T20:07:49.713Z,91.36
2019-03-02T20:10:23.088Z,91.39
2019-03-02T20:12:51.240Z,91.42
2019-03-02T20:15:19.559Z,91.45
2019-03-02T20:17:48.312Z,91.51
2019-03-02T20:20:16.750Z,91.40
2019-03-02T20:22:45.087Z,91.72
2019-03-02T20:25:13.776Z,92.10
2019-03-02T20:27:42.635Z,91.87
2019-03-02T20:30:13.325Z,91.77
2019-03-02T20:32:41.425Z,92.06
2019-03-02T20:35:12.164Z,92.25
2019-03-02T20:37:40.367Z,91.59
2019-03-02T20:40:11.007Z,91.54
2019-03-02T20:42:39.155Z,91.65
2019-03-02T20:45:09.498Z,91.93
2019-03-02T20:47:37.665Z,92.05
2019-03-02T20:50:06.243Z,91.71
2019-03-02T20:52:34.367Z,91.88
2019-03-02T20:55:02.527Z,91.21
2019-03-02T20:57:30.601Z,91.23
2019-03-02T20:59:58.706Z,91.47
2019-03-02T21:02:26.823Z,90.99
2019-03-02T21:04:54.941Z,90.78
2019-03-02T21:07:23.013Z,90.18
2019-03-02T21:09:51.578Z,89.82
2019-03-02T21:12:19.803Z,90.41
2019-03-02T21:14:47.833Z,90.32
2019-03-02T21:17:15.841Z,90.17
2019-03-02T21:19:43.964Z,89.77
2019-03-02T21:22:12.178Z,89.95
2019-03-02T21:24:40.208Z,90.01
2019-03-02T21:27:08.307Z,89.53
2019-03-02T21:29:36.395Z,89.35
2019-03-02T21:32:04.421Z,89.79
2019-03-02T21:34:32.515Z,89.91
2019-03-02T21:37:00.537Z,90.31
2019-03-02T21:39:28.605Z,90.18
2019-03-02T21:41:57.023Z,90.23
2019-03-02T21:44:25.091Z,90.18
2019-03-02T21:46:53.156Z,90.53
2019-03-02T21:49:21.303Z,90.87
2019-03-02T21:51:49.276Z,91.79
2019-03-02T21:54:17.283Z,92.08
2019-03-02T21:56:45.883Z,91.84
2019-03-02T21:59:13.711Z,91.39
2019-03-02T22:01:41.778Z,91.32
2019-03-02T22:04:09.597Z,91.62
2019-03-02T22:06:37.488Z,91.96
2019-03-02T22:09:07.130Z,91.24
2019-03-02T22:11:35.509Z,90.95
2019-03-02T22:14:03.520Z,90.65
2019-03-02T22:16:31.258Z,90.87
2019-03-02T22:18:58.814Z,90.40
2019-03-02T22:21:26.415Z,89.88
2019-03-02T22:23:53.949Z,89.79
2019-03-02T22:26:21.573Z,90.21
2019-03-02T22:28:49.150Z,90.51
2019-03-02T22:31:16.632Z,90.80
2019-03-02T22:33:44.210Z,90.66
2019-03-02T22:36:11.795Z,90.67
2019-03-02T22:38:39.269Z,91.11
2019-03-02T22:41:06.851Z,91.45
2019-03-02T22:43:34.315Z,91.47
2019-03-02T22:46:01.892Z,91.75
2019-03-02T22:48:29.453Z,92.04
2019-03-02T22:50:56.969Z,91.96
2019-03-02T22:53:24.490Z,91.89
2019-03-02T22:55:52.033Z,91.56
2019-03-02T22:58:19.541Z,91.96
2019-03-02T23:01:31.968Z,91.73
2019-03-02T23:03:59.791Z,91.84
2019-03-02T23:06:27.317Z,92.32
2019-03-02T23:08:54.856Z,91.81
2019-03-02T23:11:22.430Z,91.17
2019-03-02T23:13:49.909Z,91.14
2019-03-02T23:16:17.426Z,91.89
2019-03-02T23:18:44.878Z,92.42
2019-03-02T23:21:12.370Z,92.46
2019-03-02T23:23:39.872Z,92.09
2019-03-02T23:26:07.340Z,92.11
2019-03-02T23:28:34.810Z,92.76
2019-03-02T23:31:02.363Z,92.67
2019-03-02T23:33:30.030Z,92.85
2019-03-02T23:35:57.513Z,92.70
2019-03-02T23:38:24.959Z,92.84
2019-03-02T23:40:52.389Z,92.82
2019-03-02T23:43:19.830Z,92.91
2019-03-02T23:45:47.434Z,92.78
2019-03-02T23:48:17.249Z,92.57
2019-03-02T23:50:44.690Z,92.72
2019-03-02T23:53:12.205Z,92.81
2019-03-02T23:55:39.989Z,92.32
2019-03-02T23:58:08.559Z,92.27
